CL-SC49 weather

Oficina Victoria Airport
Oficina Victoria, Tarapac√° Region, Chile

Public forecast

Using degrees Celsius for public forecast. Weather courtesy of forecast.io.

Closest aviation weather report (METAR) to Oficina Victoria Airport

Closest report is Diego Aracena Airport, 33.4 nm (61.9 km) WNW. Retrieved 2019/12/07 01:00 UTC (12 minutes ago):

SCDA 070100Z 22008KT CAVOK 19/14 Q1017

Closest aviation forecast (TAF) to Oficina Victoria Airport

Closest forecast is Diego Aracena Airport, 33.4 nm (61.9 km) WNW. Retrieved 2019-12-07 00:00 UTC (1 hour ago):

TAF SCDA 062209Z 0700/0800 24013KT CAVOK TN17/0710Z TX23/0718Z BECMG 0704/0706 16004KT SCT035 BECMG 0714/0716 23013KT CAVOK BECMG 0722/0800 20008KT SCT030